Buoy 43528

sailwx.info

Track history (hours):
 
Tides and Currents Weather Stations Pressure Air Temp Water Temp Dewpoint Dewpoint Depression Visibility Wind Speed Wind Dir Waves Ship Positions

Drifting buoy 43528

Last reported at 2015-Mar-29 00:00 UTC. Time now 2015-Mar-29 07:25 UTC.
Position N 13°53' W 159°25'.

Water temperature 26.7 ° C

Date/timePositionNaut miles runAvg speedWind from/ knotsBaromVisibWave heightAir tempDewpointWater temp
2015-Mar-29 00:00N 13°53' W 159°25'0 0.0 26.7
2015-Mar-28 21:00N 13°53' W 159°25'1 1.0 26.7
2015-Mar-28 20:00N 13°52' W 159°24'0 0.0 26.7
2015-Mar-28 19:00N 13°52' W 159°24'2 0.5 26.6
2015-Mar-28 16:00N 13°50' W 159°24'2 1.0 26.6
2015-Mar-28 14:00N 13°49' W 159°22'0 0.0 26.7
2015-Mar-28 13:00N 13°49' W 159°22'3 1.6 26.7
2015-Mar-28 11:00N 13°47' W 159°20'0 0.0 26.7
2015-Mar-28 10:00N 13°47' W 159°20'1 0.7 26.7
2015-Mar-28 08:00N 13°47' W 159°18'2 1.5 26.7
2015-Mar-28 07:00N 13°46' W 159°18'2 0.6 26.7
2015-Mar-28 04:00N 13°45' W 159°16'1 0.8 26.7
2015-Mar-28 03:00N 13°45' W 159°15'0 0.0 26.7
2015-Mar-28 02:00N 13°45' W 159°15'4 1.9 26.8
2015-Mar-28 00:00N 13°45' W 159°11'1 0.4 26.7
2015-Mar-27 21:00N 13°44' W 159°10'1 0.6 26.7
2015-Mar-27 20:00N 13°44' W 159°10'0 0.0 26.7
2015-Mar-27 19:00N 13°44' W 159°10'2 0.8 26.7
2015-Mar-27 17:00N 13°44' W 159°08'1 0.7 26.7
2015-Mar-27 16:00N 13°44' W 159°07'2 0.9 26.7
2015-Mar-27 14:00N 13°45' W 159°06'0 0.0 26.7
2015-Mar-27 13:00N 13°45' W 159°06'1 0.7 26.7
2015-Mar-27 11:00N 13°45' W 159°04'2 0.5 26.7
2015-Mar-27 08:00N 13°45' W 159°03'1 0.3 26.7
2015-Mar-27 04:00N 13°45' W 159°01'1 0.3 26.8
2015-Mar-27 02:00N 13°45' W 159°01'3 1.4 26.8
2015-Mar-27 00:00N 13°43' W 158°59'0 0.0 26.8
2015-Mar-26 21:00N 13°43' W 158°59'0 0.2 26.7
2015-Mar-26 20:00N 13°43' W 158°58'3 0.6 26.7
2015-Mar-26 15:00N 13°42' W 158°56'1 0.6 26.7
2015-Mar-26 14:00N 13°42' W 158°55'1 0.5 26.7
2015-Mar-26 12:00N 13°41' W 158°54'4 0.5 26.7
2015-Mar-26 04:00N 13°41' W 158°50'1 0.7 26.8
2015-Mar-26 03:00N 13°41' W 158°50'2 1.9 26.8
2015-Mar-26 02:00N 13°41' W 158°48'3 0.5 26.9
2015-Mar-25 20:00N 13°42' W 158°44'0 0.0 26.7
2015-Mar-25 19:00N 13°42' W 158°44'2 0.6 26.6
2015-Mar-25 16:00N 13°43' W 158°43'1 0.6 26.6
2015-Mar-25 15:00N 13°43' W 158°42'1 0.3 26.6
2015-Mar-25 12:00N 13°43' W 158°42'0 0.0 26.7
2015-Mar-25 11:00N 13°43' W 158°42'2 0.4 26.7
2015-Mar-25 07:00N 13°45' W 158°41'1 0.3 26.7
2015-Mar-25 03:00N 13°45' W 158°40'0 0.4 26.8
2015-Mar-25 02:00N 13°45' W 158°40'0 0.4 26.8
2015-Mar-25 01:00N 13°44' W 158°39'1 0.2 26.8
2015-Mar-24 20:00N 13°45' W 158°38'2 0.3 26.6
2015-Mar-24 15:00N 13°43' W 158°38'0 0.0 26.6
2015-Mar-24 14:00N 13°43' W 158°38'4 0.7 26.6
2015-Mar-24 08:00N 13°40' W 158°35'2 0.5 26.6
2015-Mar-24 04:00N 13°39' W 158°33'9 0.7 26.7
2015-Mar-23 15:00N 13°37' W 158°24'0 0.0 26.5
2015-Mar-23 14:00N 13°37' W 158°24'4 0.5 26.5
2015-Mar-23 06:00N 13°39' W 158°20'0 0.2 26.6
2015-Mar-23 04:00N 13°38' W 158°20'0 0.0 26.6
2015-Mar-23 03:00N 13°38' W 158°20'1 0.3 26.6
2015-Mar-23 00:00N 13°39' W 158°19'1 0.1 26.6
2015-Mar-22 19:00N 13°38' W 158°19'1 0.3 26.6
2015-Mar-22 16:00N 13°37' W 158°18'7 0.7 26.6
2015-Mar-22 07:00N 13°33' W 158°12'2 0.6 26.6
2015-Mar-22 04:00N 13°33' W 158°11'3 2.8 26.6
2015-Mar-22 03:00N 13°32' W 158°08'3 3.0 26.6
2015-Mar-22 02:00N 13°33' W 158°11'5 2.6 26.6
2015-Mar-22 00:00N 13°31' W 158°06'3 0.4 26.7
2015-Mar-21 16:00N 13°30' W 158°03'1 0.6 26.6
2015-Mar-21 14:00N 13°31' W 158°02'1 1.0 26.6
2015-Mar-21 13:00N 13°31' W 158°01'0 0.0 26.6
2015-Mar-21 12:00N 13°31' W 158°01'7 0.8 26.6
2015-Mar-21 03:00N 13°32' W 157°54'1 0.3 26.7
2015-Mar-21 00:00N 13°33' W 157°54'0 0.0 26.7
2015-Mar-20 19:00N 13°33' W 157°53'0 0.5 26.6
2015-Mar-20 18:00N 13°32' W 157°53'0 0.2 26.6
2015-Mar-20 16:00N 13°32' W 157°53'3 0.3 26.6
2015-Mar-20 08:00N 13°30' W 157°52'2 1.8 26.6
2015-Mar-20 07:00N 13°29' W 157°50'8 0.5 26.6
2015-Mar-19 16:00N 13°27' W 157°42'2 0.2 26.6
2015-Mar-19 08:00N 13°27' W 157°40'1 0.6 26.6
2015-Mar-19 07:00N 13°27' W 157°40'0 0.0 26.6
2015-Mar-19 06:00N 13°27' W 157°40'0 0.3 26.6
2015-Mar-19 05:00N 13°27' W 157°40'1 0.9 26.6
2015-Mar-19 04:00N 13°27' W 157°39'1 0.6 26.7
2015-Mar-19 03:00N 13°27' W 157°39'2 0.8 26.8
2015-Mar-19 00:00N 13°27' W 157°36'   26.7
Track history (hours):
 
Tides and Currents Weather Stations Pressure Air Temp Water Temp Dewpoint Dewpoint Depression Visibility Wind Speed Wind Dir Waves Ship Positions

Drifting buoy 43528

Last reported at 2015-Mar-29 00:00 UTC. Time now 2015-Mar-29 07:25 UTC.
Position N 13°53' W 159°25'.

Water temperature 26.7 ° C

Date/timePositionNaut miles runAvg speedWind from/ knotsBaromVisibWave heightAir tempDewpointWater temp
2015-Mar-29 00:00N 13°53' W 159°25'0 0.0 26.7
2015-Mar-28 21:00N 13°53' W 159°25'1 1.0 26.7
2015-Mar-28 20:00N 13°52' W 159°24'0 0.0 26.7
2015-Mar-28 19:00N 13°52' W 159°24'2 0.5 26.6
2015-Mar-28 16:00N 13°50' W 159°24'2 1.0 26.6
2015-Mar-28 14:00N 13°49' W 159°22'0 0.0 26.7
2015-Mar-28 13:00N 13°49' W 159°22'3 1.6 26.7
2015-Mar-28 11:00N 13°47' W 159°20'0 0.0 26.7
2015-Mar-28 10:00N 13°47' W 159°20'1 0.7 26.7
2015-Mar-28 08:00N 13°47' W 159°18'2 1.5 26.7
2015-Mar-28 07:00N 13°46' W 159°18'2 0.6 26.7
2015-Mar-28 04:00N 13°45' W 159°16'1 0.8 26.7
2015-Mar-28 03:00N 13°45' W 159°15'0 0.0 26.7
2015-Mar-28 02:00N 13°45' W 159°15'4 1.9 26.8
2015-Mar-28 00:00N 13°45' W 159°11'1 0.4 26.7
2015-Mar-27 21:00N 13°44' W 159°10'1 0.6 26.7
2015-Mar-27 20:00N 13°44' W 159°10'0 0.0 26.7
2015-Mar-27 19:00N 13°44' W 159°10'2 0.8 26.7
2015-Mar-27 17:00N 13°44' W 159°08'1 0.7 26.7
2015-Mar-27 16:00N 13°44' W 159°07'2 0.9 26.7
2015-Mar-27 14:00N 13°45' W 159°06'0 0.0 26.7
2015-Mar-27 13:00N 13°45' W 159°06'1 0.7 26.7
2015-Mar-27 11:00N 13°45' W 159°04'2 0.5 26.7
2015-Mar-27 08:00N 13°45' W 159°03'1 0.3 26.7
2015-Mar-27 04:00N 13°45' W 159°01'1 0.3 26.8
2015-Mar-27 02:00N 13°45' W 159°01'3 1.4 26.8
2015-Mar-27 00:00N 13°43' W 158°59'0 0.0 26.8
2015-Mar-26 21:00N 13°43' W 158°59'0 0.2 26.7
2015-Mar-26 20:00N 13°43' W 158°58'3 0.6 26.7
2015-Mar-26 15:00N 13°42' W 158°56'1 0.6 26.7
2015-Mar-26 14:00N 13°42' W 158°55'1 0.5 26.7
2015-Mar-26 12:00N 13°41' W 158°54'4 0.5 26.7
2015-Mar-26 04:00N 13°41' W 158°50'1 0.7 26.8
2015-Mar-26 03:00N 13°41' W 158°50'2 1.9 26.8
2015-Mar-26 02:00N 13°41' W 158°48'3 0.5 26.9
2015-Mar-25 20:00N 13°42' W 158°44'0 0.0 26.7
2015-Mar-25 19:00N 13°42' W 158°44'2 0.6 26.6
2015-Mar-25 16:00N 13°43' W 158°43'1 0.6 26.6
2015-Mar-25 15:00N 13°43' W 158°42'1 0.3 26.6
2015-Mar-25 12:00N 13°43' W 158°42'0 0.0 26.7
2015-Mar-25 11:00N 13°43' W 158°42'2 0.4 26.7
2015-Mar-25 07:00N 13°45' W 158°41'1 0.3 26.7
2015-Mar-25 03:00N 13°45' W 158°40'0 0.4 26.8
2015-Mar-25 02:00N 13°45' W 158°40'0 0.4 26.8
2015-Mar-25 01:00N 13°44' W 158°39'1 0.2 26.8
2015-Mar-24 20:00N 13°45' W 158°38'2 0.3 26.6
2015-Mar-24 15:00N 13°43' W 158°38'0 0.0 26.6
2015-Mar-24 14:00N 13°43' W 158°38'4 0.7 26.6
2015-Mar-24 08:00N 13°40' W 158°35'2 0.5 26.6
2015-Mar-24 04:00N 13°39' W 158°33'9 0.7 26.7
2015-Mar-23 15:00N 13°37' W 158°24'0 0.0 26.5
2015-Mar-23 14:00N 13°37' W 158°24'4 0.5 26.5
2015-Mar-23 06:00N 13°39' W 158°20'0 0.2 26.6
2015-Mar-23 04:00N 13°38' W 158°20'0 0.0 26.6
2015-Mar-23 03:00N 13°38' W 158°20'1 0.3 26.6
2015-Mar-23 00:00N 13°39' W 158°19'1 0.1 26.6
2015-Mar-22 19:00N 13°38' W 158°19'1 0.3 26.6
2015-Mar-22 16:00N 13°37' W 158°18'7 0.7 26.6
2015-Mar-22 07:00N 13°33' W 158°12'2 0.6 26.6
2015-Mar-22 04:00N 13°33' W 158°11'3 2.8 26.6
2015-Mar-22 03:00N 13°32' W 158°08'3 3.0 26.6
2015-Mar-22 02:00N 13°33' W 158°11'5 2.6 26.6
2015-Mar-22 00:00N 13°31' W 158°06'3 0.4 26.7
2015-Mar-21 16:00N 13°30' W 158°03'1 0.6 26.6
2015-Mar-21 14:00N 13°31' W 158°02'1 1.0 26.6
2015-Mar-21 13:00N 13°31' W 158°01'0 0.0 26.6
2015-Mar-21 12:00N 13°31' W 158°01'7 0.8 26.6
2015-Mar-21 03:00N 13°32' W 157°54'1 0.3 26.7
2015-Mar-21 00:00N 13°33' W 157°54'0 0.0 26.7
2015-Mar-20 19:00N 13°33' W 157°53'0 0.5 26.6
2015-Mar-20 18:00N 13°32' W 157°53'0 0.2 26.6
2015-Mar-20 16:00N 13°32' W 157°53'3 0.3 26.6
2015-Mar-20 08:00N 13°30' W 157°52'2 1.8 26.6
2015-Mar-20 07:00N 13°29' W 157°50'8 0.5 26.6
2015-Mar-19 16:00N 13°27' W 157°42'2 0.2 26.6
2015-Mar-19 08:00N 13°27' W 157°40'1 0.6 26.6
2015-Mar-19 07:00N 13°27' W 157°40'0 0.0 26.6
2015-Mar-19 06:00N 13°27' W 157°40'0 0.3 26.6
2015-Mar-19 05:00N 13°27' W 157°40'1 0.9 26.6
2015-Mar-19 04:00N 13°27' W 157°39'1 0.6 26.7
2015-Mar-19 03:00N 13°27' W 157°39'2 0.8 26.8
2015-Mar-19 00:00N 13°27' W 157°36'   26.7

Dump ship's entire track history